Terminal Aerodrome Forecast
Issued by NWS Knoxville/Tri Cities, TN

Home | Current Version | Previous Version | Text Only | Print | Product List | Glossary On
Versions: 1 2 3 4 5 6 7 8 9 10 11 12 13
000
FTUS44 KMRX 270520
TAFTYS
TAF
KTYS 270520Z 2706/2806 00000KT P6SM SCT060 BKN120
     FM271000 00000KT P6SM OVC100
     FM271700 36005KT P6SM SCT150
     FM280200 00000KT P6SM SKC=

USA.gov is the U.S. government's official web portal to all federal, state and local government web resources and services.